LPFL/FLW METAR and TAF weather

Enter ICAO airport designator
Station Type Date Time Source
LPFL METAR 2019/04/20 18:00 UTC NOAA

LPFL 201800Z 18008KT 150V210 9999 FEW016 18/16 Q1029


Station Type Date Time Source
LPFL Decoded METAR 2019/04/20 18:00 UTC NOAA

Flores Acores , Portugal (LPFL) 39-27N 031-08W 29M
Apr 20, 2019 - 02:00 PM EDT / 2019.04.20 1800 UTC
Wind: from the S (180 degrees) at 9 MPH (8 KT) (direction variable):0
Visibility: greater than 7 mile(s):0
Sky conditions: mostly clear
Temperature: 64 F (18 C)
Dew Point: 60 F (16 C)
Relative Humidity: 88%
Pressure (altimeter): 30.39 in. Hg (1029 hPa)
ob: LPFL 201800Z 18008KT 150V210 9999 FEW016 18/16 Q1029
cycle: 18

Station Type Date Time Source
LPFL TAF UTC NOAA

Error!

Example: see airport list